sensor_id;sensor_type;location;lat;lon;timestamp;pressure;altitude;pressure_sealevel;temperature;humidity
20228;BME280;12195;55.790;37.572;2024-01-25T00:02:09;98610.00;;;2.39;81.29
20228;BME280;12195;55.790;37.572;2024-01-25T00:04:42;98606.81;;;2.32;81.78
20228;BME280;12195;55.790;37.572;2024-01-25T00:07:15;98602.66;;;2.28;81.97
20228;BME280;12195;55.790;37.572;2024-01-25T00:09:48;98603.58;;;2.27;81.75
20228;BME280;12195;55.790;37.572;2024-01-25T00:12:20;98590.85;;;2.21;82.07
20228;BME280;12195;55.790;37.572;2024-01-25T00:14:53;98595.27;;;2.19;82.28
20228;BME280;12195;55.790;37.572;2024-01-25T00:17:26;98588.46;;;2.17;82.35
20228;BME280;12195;55.790;37.572;2024-01-25T00:19:58;98586.78;;;2.16;82.79
20228;BME280;12195;55.790;37.572;2024-01-25T00:22:32;98579.02;;;2.16;82.92
20228;BME280;12195;55.790;37.572;2024-01-25T00:25:05;98569.31;;;2.21;82.31
20228;BME280;12195;55.790;37.572;2024-01-25T00:27:37;98571.11;;;2.19;82.55
20228;BME280;12195;55.790;37.572;2024-01-25T00:30:10;98574.66;;;2.16;82.54
20228;BME280;12195;55.790;37.572;2024-01-25T00:32:43;98567.80;;;2.15;82.33
20228;BME280;12195;55.790;37.572;2024-01-25T00:35:17;98574.72;;;2.15;82.62
20228;BME280;12195;55.790;37.572;2024-01-25T00:37:50;98565.33;;;2.12;82.81
20228;BME280;12195;55.790;37.572;2024-01-25T00:40:23;98561.06;;;2.11;82.65
20228;BME280;12195;55.790;37.572;2024-01-25T00:42:57;98568.83;;;2.11;82.78
20228;BME280;12195;55.790;37.572;2024-01-25T00:45:29;98562.89;;;2.09;82.89
20228;BME280;12195;55.790;37.572;2024-01-25T00:48:03;98561.17;;;2.08;82.99
20228;BME280;12195;55.790;37.572;2024-01-25T00:50:36;98554.32;;;2.07;83.02
20228;BME280;12195;55.790;37.572;2024-01-25T00:53:09;98551.67;;;2.09;83.09
20228;BME280;12195;55.790;37.572;2024-01-25T00:55:42;98549.09;;;2.09;83.06
20228;BME280;12195;55.790;37.572;2024-01-25T00:58:15;98546.55;;;2.07;82.88
20228;BME280;12195;55.790;37.572;2024-01-25T01:00:48;98539.76;;;2.05;82.92
20228;BME280;12195;55.790;37.572;2024-01-25T01:03:22;98535.49;;;2.04;83.20
20228;BME280;12195;55.790;37.572;2024-01-25T01:05:54;98529.46;;;2.03;83.31
20228;BME280;12195;55.790;37.572;2024-01-25T01:08:29;98519.11;;;2.03;83.15
20228;BME280;12195;55.790;37.572;2024-01-25T01:11:02;98519.97;;;2.04;83.01
20228;BME280;12195;55.790;37.572;2024-01-25T01:13:35;98516.58;;;2.02;83.31
20228;BME280;12195;55.790;37.572;2024-01-25T01:16:07;98512.31;;;2.01;83.35
20228;BME280;12195;55.790;37.572;2024-01-25T01:18:40;98511.41;;;2.02;83.26
20228;BME280;12195;55.790;37.572;2024-01-25T01:21:13;98506.23;;;2.02;83.32
20228;BME280;12195;55.790;37.572;2024-01-25T01:23:46;98504.55;;;2.01;83.35
20228;BME280;12195;55.790;37.572;2024-01-25T01:26:19;98498.52;;;2.00;83.58
20228;BME280;12195;55.790;37.572;2024-01-25T01:28:51;98502.73;;;2.03;83.75
20228;BME280;12195;55.790;37.572;2024-01-25T01:31:24;98496.52;;;2.07;83.78
20228;BME280;12195;55.790;37.572;2024-01-25T01:33:57;98498.34;;;2.05;83.50
20228;BME280;12195;55.790;37.572;2024-01-25T01:36:31;98492.37;;;2.03;83.77
20228;BME280;12195;55.790;37.572;2024-01-25T01:39:03;98490.59;;;2.05;83.72
20228;BME280;12195;55.790;37.572;2024-01-25T01:41:37;98487.08;;;2.06;83.60
20228;BME280;12195;55.790;37.572;2024-01-25T01:44:10;98492.27;;;2.06;83.65
20228;BME280;12195;55.790;37.572;2024-01-25T01:46:43;98482.82;;;2.05;83.67
20228;BME280;12195;55.790;37.572;2024-01-25T01:49:16;98484.55;;;2.04;83.83
20228;BME280;12195;55.790;37.572;2024-01-25T01:51:49;98487.08;;;2.06;83.97
20228;BME280;12195;55.790;37.572;2024-01-25T01:54:21;98479.53;;;2.21;83.56
20228;BME280;12195;55.790;37.572;2024-01-25T01:56:55;98478.41;;;2.07;83.23
20228;BME280;12195;55.790;37.572;2024-01-25T01:59:28;98475.82;;;2.07;83.57
20228;BME280;12195;55.790;37.572;2024-01-25T02:02:00;98476.67;;;2.07;83.80
20228;BME280;12195;55.790;37.572;2024-01-25T02:04:33;98480.12;;;2.08;83.71
20228;BME280;12195;55.790;37.572;2024-01-25T02:07:07;98472.41;;;2.06;83.98
20228;BME280;12195;55.790;37.572;2024-01-25T02:09:41;98474.94;;;2.08;83.91
20228;BME280;12195;55.790;37.572;2024-01-25T02:12:15;98463.62;;;2.10;83.18
20228;BME280;12195;55.790;37.572;2024-01-25T02:14:48;98467.03;;;2.11;83.43
20228;BME280;12195;55.790;37.572;2024-01-25T02:17:21;98467.23;;;2.06;83.25
20228;BME280;12195;55.790;37.572;2024-01-25T02:19:54;98465.62;;;2.04;83.27
20228;BME280;12195;55.790;37.572;2024-01-25T02:22:28;98474.14;;;2.06;83.26
20228;BME280;12195;55.790;37.572;2024-01-25T02:25:00;98480.12;;;2.08;82.80
20228;BME280;12195;55.790;37.572;2024-01-25T02:27:33;98486.12;;;2.08;82.59
20228;BME280;12195;55.790;37.572;2024-01-25T02:30:07;98477.59;;;2.06;81.97
20228;BME280;12195;55.790;37.572;2024-01-25T02:32:42;98474.41;;;2.00;82.28
20228;BME280;12195;55.790;37.572;2024-01-25T02:35:15;98478.78;;;1.98;82.44
20228;BME280;12195;55.790;37.572;2024-01-25T02:37:48;98474.52;;;1.97;82.48
20228;BME280;12195;55.790;37.572;2024-01-25T02:40:21;98480.46;;;1.99;82.08
20228;BME280;12195;55.790;37.572;2024-01-25T02:42:54;98473.08;;;1.90;81.90
20228;BME280;12195;55.790;37.572;2024-01-25T02:45:28;98463.89;;;1.83;82.55
20228;BME280;12195;55.790;37.572;2024-01-25T02:48:01;98461.42;;;1.80;82.53
20228;BME280;12195;55.790;37.572;2024-01-25T02:50:35;98459.80;;;1.77;82.53
20228;BME280;12195;55.790;37.572;2024-01-25T02:53:08;98461.53;;;1.77;83.12
20228;BME280;12195;55.790;37.572;2024-01-25T02:55:40;98452.09;;;1.76;82.89
20228;BME280;12195;55.790;37.572;2024-01-25T02:58:13;98451.35;;;1.72;83.06
20228;BME280;12195;55.790;37.572;2024-01-25T03:00:45;98449.62;;;1.73;83.31
20228;BME280;12195;55.790;37.572;2024-01-25T03:03:18;98452.27;;;1.71;82.99
20228;BME280;12195;55.790;37.572;2024-01-25T03:05:54;98446.27;;;1.71;83.19
20228;BME280;12195;55.790;37.572;2024-01-25T03:08:27;98449.73;;;1.70;83.29
20228;BME280;12195;55.790;37.572;2024-01-25T03:10:59;98441.20;;;1.68;83.55
20228;BME280;12195;55.790;37.572;2024-01-25T03:13:33;98442.06;;;1.68;83.52
20228;BME280;12195;55.790;37.572;2024-01-25T03:16:07;98440.36;;;1.67;83.79
20228;BME280;12195;55.790;37.572;2024-01-25T03:18:39;98435.12;;;1.69;83.58
20228;BME280;12195;55.790;37.572;2024-01-25T03:21:13;98419.61;;;1.69;83.66
20228;BME280;12195;55.790;37.572;2024-01-25T03:23:45;98421.28;;;1.70;83.69
20228;BME280;12195;55.790;37.572;2024-01-25T03:26:18;98426.45;;;1.70;83.68
20228;BME280;12195;55.790;37.572;2024-01-25T03:28:51;98422.19;;;1.69;83.72
20228;BME280;12195;55.790;37.572;2024-01-25T03:31:24;98421.97;;;1.75;83.29
20228;BME280;12195;55.790;37.572;2024-01-25T03:33:57;98425.58;;;1.71;83.35
20228;BME280;12195;55.790;37.572;2024-01-25T03:36:30;98417.93;;;1.68;83.66
20228;BME280;12195;55.790;37.572;2024-01-25T03:39:04;98423.95;;;1.68;83.68
20228;BME280;12195;55.790;37.572;2024-01-25T03:41:37;98419.66;;;1.67;83.63
20228;BME280;12195;55.790;37.572;2024-01-25T03:44:10;98419.72;;;1.66;83.75
20228;BME280;12195;55.790;37.572;2024-01-25T03:46:43;98409.47;;;1.64;83.64
20228;BME280;12195;55.790;37.572;2024-01-25T03:49:16;98425.91;;;1.62;83.76
20228;BME280;12195;55.790;37.572;2024-01-25T03:51:49;98413.95;;;1.59;83.86
20228;BME280;12195;55.790;37.572;2024-01-25T03:54:21;98407.95;;;1.59;83.76
20228;BME280;12195;55.790;37.572;2024-01-25T03:56:55;98412.33;;;1.57;83.97
20228;BME280;12195;55.790;37.572;2024-01-25T03:59:28;98407.10;;;1.58;83.93
20228;BME280;12195;55.790;37.572;2024-01-25T04:02:01;98398.64;;;1.55;83.94
20228;BME280;12195;55.790;37.572;2024-01-25T04:04:34;98408.07;;;1.56;84.05
20228;BME280;12195;55.790;37.572;2024-01-25T04:07:09;98393.52;;;1.53;83.95
20228;BME280;12195;55.790;37.572;2024-01-25T04:09:43;98397.84;;;1.53;84.00
20228;BME280;12195;55.790;37.572;2024-01-25T04:12:16;98398.69;;;1.53;83.99
20228;BME280;12195;55.790;37.572;2024-01-25T04:14:50;98398.97;;;1.67;83.83
20228;BME280;12195;55.790;37.572;2024-01-25T04:17:27;98403.75;;;1.56;83.40
20228;BME280;12195;55.790;37.572;2024-01-25T04:20:00;98399.72;;;1.49;83.59
20228;BME280;12195;55.790;37.572;2024-01-25T04:22:33;98404.89;;;1.49;83.54
20228;BME280;12195;55.790;37.572;2024-01-25T04:25:09;98410.11;;;1.48;83.73
20228;BME280;12195;55.790;37.572;2024-01-25T04:27:43;98405.91;;;1.45;83.75
20228;BME280;12195;55.790;37.572;2024-01-25T04:30:17;98399.01;;;1.46;83.87
20228;BME280;12195;55.790;37.572;2024-01-25T04:32:53;98402.47;;;1.45;84.10
20228;BME280;12195;55.790;37.572;2024-01-25T04:35:27;98404.23;;;1.44;84.30
20228;BME280;12195;55.790;37.572;2024-01-25T04:38:01;98405.05;;;1.45;84.35
20228;BME280;12195;55.790;37.572;2024-01-25T04:40:35;98404.09;;;1.47;84.22
20228;BME280;12195;55.790;37.572;2024-01-25T04:43:09;98415.23;;;1.49;84.35
20228;BME280;12195;55.790;37.572;2024-01-25T04:45:44;98407.42;;;1.51;84.24
20228;BME280;12195;55.790;37.572;2024-01-25T04:48:18;98411.68;;;1.52;84.20
20228;BME280;12195;55.790;37.572;2024-01-25T04:50:53;98404.83;;;1.51;84.42
20228;BME280;12195;55.790;37.572;2024-01-25T04:53:28;98406.50;;;1.52;84.48
20228;BME280;12195;55.790;37.572;2024-01-25T04:56:01;98401.34;;;1.52;84.46
20228;BME280;12195;55.790;37.572;2024-01-25T04:58:34;98412.53;;;1.52;84.56
20228;BME280;12195;55.790;37.572;2024-01-25T05:01:08;98406.50;;;1.52;84.47
20228;BME280;12195;55.790;37.572;2024-01-25T05:03:41;98406.50;;;1.52;84.37
20228;BME280;12195;55.790;37.572;2024-01-25T05:06:15;98406.50;;;1.52;84.28
20228;BME280;12195;55.790;37.572;2024-01-25T05:08:48;98407.47;;;1.49;84.27
20228;BME280;12195;55.790;37.572;2024-01-25T05:11:21;98401.45;;;1.49;84.37
20228;BME280;12195;55.790;37.572;2024-01-25T05:13:53;98398.92;;;1.47;84.23
20228;BME280;12195;55.790;37.572;2024-01-25T05:16:27;98401.65;;;1.44;84.44
20228;BME280;12195;55.790;37.572;2024-01-25T05:19:00;98404.23;;;1.44;84.19
20228;BME280;12195;55.790;37.572;2024-01-25T05:21:35;98407.22;;;1.55;84.39
20228;BME280;12195;55.790;37.572;2024-01-25T05:24:10;98410.28;;;1.43;83.99
20228;BME280;12195;55.790;37.572;2024-01-25T05:26:46;98397.50;;;1.40;84.14
20228;BME280;12195;55.790;37.572;2024-01-25T05:29:21;98406.13;;;1.39;84.29
20228;BME280;12195;55.790;37.572;2024-01-25T05:31:55;98399.28;;;1.38;84.38
20228;BME280;12195;55.790;37.572;2024-01-25T05:34:29;98394.97;;;1.39;84.36
20228;BME280;12195;55.790;37.572;2024-01-25T05:37:02;98393.30;;;1.38;84.52
20228;BME280;12195;55.790;37.572;2024-01-25T05:39:35;98403.13;;;1.50;84.79
20228;BME280;12195;55.790;37.572;2024-01-25T05:42:08;98400.03;;;1.42;84.23
20228;BME280;12195;55.790;37.572;2024-01-25T05:44:43;98397.08;;;1.51;84.49
20228;BME280;12195;55.790;37.572;2024-01-25T05:47:20;98400.84;;;1.42;84.36
20228;BME280;12195;55.790;37.572;2024-01-25T05:49:55;98405.00;;;1.46;84.46
20228;BME280;12195;55.790;37.572;2024-01-25T05:52:31;98402.25;;;1.51;84.32
20228;BME280;12195;55.790;37.572;2024-01-25T05:55:06;98402.53;;;1.43;84.05
20228;BME280;12195;55.790;37.572;2024-01-25T05:57:43;98416.36;;;1.42;84.26
20228;BME280;12195;55.790;37.572;2024-01-25T06:00:17;98407.78;;;1.42;84.50
20228;BME280;12195;55.790;37.572;2024-01-25T06:02:53;98401.77;;;1.41;84.69
20228;BME280;12195;55.790;37.572;2024-01-25T06:05:28;98393.95;;;1.43;84.55
20228;BME280;12195;55.790;37.572;2024-01-25T06:08:01;98396.53;;;1.43;84.59
20228;BME280;12195;55.790;37.572;2024-01-25T06:10:34;98388.72;;;1.44;84.70
20228;BME280;12195;55.790;37.572;2024-01-25T06:13:09;98399.77;;;1.48;84.61
20228;BME280;12195;55.790;37.572;2024-01-25T06:15:43;98396.28;;;1.49;84.53
20228;BME280;12195;55.790;37.572;2024-01-25T06:18:17;98394.60;;;1.48;84.48
20228;BME280;12195;55.790;37.572;2024-01-25T06:20:52;98394.60;;;1.48;84.47
20228;BME280;12195;55.790;37.572;2024-01-25T06:23:25;98394.60;;;1.48;84.63
20228;BME280;12195;55.790;37.572;2024-01-25T06:25:58;98392.78;;;1.50;84.57
20228;BME280;12195;55.790;37.572;2024-01-25T06:28:33;98393.58;;;1.52;84.50
20228;BME280;12195;55.790;37.572;2024-01-25T06:31:06;98395.25;;;1.53;84.31
20228;BME280;12195;55.790;37.572;2024-01-25T06:33:40;98397.02;;;1.52;84.26
20228;BME280;12195;55.790;37.572;2024-01-25T06:36:15;98399.66;;;1.51;84.17
20228;BME280;12195;55.790;37.572;2024-01-25T06:38:48;98384.00;;;1.54;84.18
20228;BME280;12195;55.790;37.572;2024-01-25T06:41:21;98387.38;;;1.56;83.88
20228;BME280;12195;55.790;37.572;2024-01-25T06:43:55;98391.76;;;1.54;84.04
20228;BME280;12195;55.790;37.572;2024-01-25T06:46:32;98387.38;;;1.56;84.19
20228;BME280;12195;55.790;37.572;2024-01-25T06:49:05;98392.44;;;1.59;84.07
20228;BME280;12195;55.790;37.572;2024-01-25T06:51:39;98390.73;;;1.58;83.91
20228;BME280;12195;55.790;37.572;2024-01-25T06:54:13;98393.32;;;1.58;83.70
20228;BME280;12195;55.790;37.572;2024-01-25T06:56:46;98387.21;;;1.60;83.65
20228;BME280;12195;55.790;37.572;2024-01-25T06:59:21;98394.23;;;1.57;83.66
20228;BME280;12195;55.790;37.572;2024-01-25T07:01:56;98390.73;;;1.58;83.36
20228;BME280;12195;55.790;37.572;2024-01-25T07:04:31;98393.20;;;1.61;83.21
20228;BME280;12195;55.790;37.572;2024-01-25T07:07:06;98400.20;;;1.59;83.16
20228;BME280;12195;55.790;37.572;2024-01-25T07:09:40;98400.20;;;1.59;83.46
20228;BME280;12195;55.790;37.572;2024-01-25T07:12:16;98396.70;;;1.60;83.33
20228;BME280;12195;55.790;37.572;2024-01-25T07:14:49;98393.15;;;1.62;82.92
20228;BME280;12195;55.790;37.572;2024-01-25T07:17:24;98398.27;;;1.64;82.98
20228;BME280;12195;55.790;37.572;2024-01-25T07:19:58;98402.58;;;1.63;83.20
20228;BME280;12195;55.790;37.572;2024-01-25T07:22:33;98401.62;;;1.66;82.60
20228;BME280;12195;55.790;37.572;2024-01-25T07:25:08;98402.64;;;1.62;82.72
20228;BME280;12195;55.790;37.572;2024-01-25T07:27:46;98405.22;;;1.62;82.84
20228;BME280;12195;55.790;37.572;2024-01-25T07:30:19;98399.17;;;1.63;82.38
20228;BME280;12195;55.790;37.572;2024-01-25T07:32:52;98398.38;;;1.61;82.22
20228;BME280;12195;55.790;37.572;2024-01-25T07:35:27;98402.73;;;1.60;82.47
20228;BME280;12195;55.790;37.572;2024-01-25T07:38:01;98395.84;;;1.59;82.58
20228;BME280;12195;55.790;37.572;2024-01-25T07:40:35;98398.44;;;1.59;82.67
20228;BME280;12195;55.790;37.572;2024-01-25T07:43:08;98400.14;;;1.60;82.86
20228;BME280;12195;55.790;37.572;2024-01-25T07:45:43;98405.31;;;1.60;83.04
20228;BME280;12195;55.790;37.572;2024-01-25T07:48:18;98404.46;;;1.60;82.90
20228;BME280;12195;55.790;37.572;2024-01-25T07:50:54;98400.05;;;1.62;82.49
20228;BME280;12195;55.790;37.572;2024-01-25T07:53:29;98402.64;;;1.62;82.50
20228;BME280;12195;55.790;37.572;2024-01-25T07:56:02;98399.17;;;1.63;82.44
20228;BME280;12195;55.790;37.572;2024-01-25T08:01:04;98406.35;;;1.76;82.80
20228;BME280;12195;55.790;37.572;2024-01-25T08:03:41;98399.83;;;1.68;82.60
20228;BME280;12195;55.790;37.572;2024-01-25T08:06:17;98401.56;;;1.67;82.52
20228;BME280;12195;55.790;37.572;2024-01-25T08:08:51;98395.56;;;1.67;82.55
20228;BME280;12195;55.790;37.572;2024-01-25T08:11:25;98396.38;;;1.67;82.49
20228;BME280;12195;55.790;37.572;2024-01-25T08:13:58;98405.77;;;1.70;82.63
20228;BME280;12195;55.790;37.572;2024-01-25T08:16:31;98402.35;;;1.69;82.49
20228;BME280;12195;55.790;37.572;2024-01-25T08:19:05;98405.65;;;1.73;82.33
20228;BME280;12195;55.790;37.572;2024-01-25T08:21:39;98405.65;;;1.73;82.30
20228;BME280;12195;55.790;37.572;2024-01-25T08:24:13;98405.53;;;1.76;82.09
20228;BME280;12195;55.790;37.572;2024-01-25T08:26:46;98399.33;;;1.80;82.29
20228;BME280;12195;55.790;37.572;2024-01-25T08:29:21;98399.98;;;1.85;82.07
20228;BME280;12195;55.790;37.572;2024-01-25T08:31:55;98399.75;;;1.91;82.08
20228;BME280;12195;55.790;37.572;2024-01-25T08:34:28;98396.89;;;1.97;82.20
20228;BME280;12195;55.790;37.572;2024-01-25T08:37:02;98396.56;;;2.04;82.28
20228;BME280;12195;55.790;37.572;2024-01-25T08:39:36;98394.65;;;2.09;82.33
20228;BME280;12195;55.790;37.572;2024-01-25T08:42:11;98400.41;;;2.16;82.08
20228;BME280;12195;55.790;37.572;2024-01-25T08:44:44;98395.23;;;2.16;81.72
20228;BME280;12195;55.790;37.572;2024-01-25T08:47:18;98391.84;;;2.14;81.42
20228;BME280;12195;55.790;37.572;2024-01-25T08:49:52;98400.77;;;2.27;81.74
20228;BME280;12195;55.790;37.572;2024-01-25T08:52:25;98391.84;;;2.14;81.40
20228;BME280;12195;55.790;37.572;2024-01-25T08:54:58;98394.38;;;2.15;81.15
20228;BME280;12195;55.790;37.572;2024-01-25T08:57:32;98397.73;;;2.17;80.42
20228;BME280;12195;55.790;37.572;2024-01-25T09:00:07;98389.47;;;2.09;80.95
20228;BME280;12195;55.790;37.572;2024-01-25T09:02:45;98391.27;;;2.07;81.29
20228;BME280;12195;55.790;37.572;2024-01-25T09:05:18;98397.09;;;2.12;81.42
20228;BME280;12195;55.790;37.572;2024-01-25T09:07:51;98395.53;;;2.08;81.12
20228;BME280;12195;55.790;37.572;2024-01-25T09:10:24;98401.95;;;2.20;81.03
20228;BME280;12195;55.790;37.572;2024-01-25T09:12:57;98393.09;;;2.05;80.31
20228;BME280;12195;55.790;37.572;2024-01-25T09:15:32;98400.13;;;2.02;80.53
20228;BME280;12195;55.790;37.572;2024-01-25T09:18:06;98400.24;;;1.99;80.86
20228;BME280;12195;55.790;37.572;2024-01-25T09:20:41;98406.21;;;2.01;80.78
20228;BME280;12195;55.790;37.572;2024-01-25T09:23:16;98401.16;;;1.98;80.44
20228;BME280;12195;55.790;37.572;2024-01-25T09:25:50;98398.56;;;1.98;80.53
20228;BME280;12195;55.790;37.572;2024-01-25T09:28:24;98398.45;;;2.01;80.44
20228;BME280;12195;55.790;37.572;2024-01-25T09:30:58;98402.59;;;2.05;80.56
20228;BME280;12195;55.790;37.572;2024-01-25T09:33:31;98405.23;;;2.03;80.35
20228;BME280;12195;55.790;37.572;2024-01-25T09:36:07;98399.42;;;1.98;80.30
20228;BME280;12195;55.790;37.572;2024-01-25T09:38:42;98390.09;;;1.94;80.75
20228;BME280;12195;55.790;37.572;2024-01-25T09:41:16;98397.06;;;1.92;80.45
20228;BME280;12195;55.790;37.572;2024-01-25T09:43:50;98400.56;;;1.91;80.02
20228;BME280;12195;55.790;37.572;2024-01-25T09:46:24;98397.27;;;1.88;80.22
20228;BME280;12195;55.790;37.572;2024-01-25T09:48:58;98393.02;;;1.87;80.46
20228;BME280;12195;55.790;37.572;2024-01-25T09:51:40;98386.02;;;1.89;80.69
20228;BME280;12195;55.790;37.572;2024-01-25T09:54:14;98389.24;;;1.94;79.87
20228;BME280;12195;55.790;37.572;2024-01-25T09:56:52;98382.28;;;1.96;79.96
20228;BME280;12195;55.790;37.572;2024-01-25T09:59:27;98376.25;;;1.95;80.31
20228;BME280;12195;55.790;37.572;2024-01-25T10:02:02;98377.80;;;1.99;79.87
20228;BME280;12195;55.790;37.572;2024-01-25T10:04:35;98374.88;;;2.07;79.76
20228;BME280;12195;55.790;37.572;2024-01-25T10:07:10;98371.41;;;2.08;79.71
20228;BME280;12195;55.790;37.572;2024-01-25T10:09:44;98369.52;;;2.11;80.01
20228;BME280;12195;55.790;37.572;2024-01-25T10:12:18;98371.84;;;2.17;79.90
20228;BME280;12195;55.790;37.572;2024-01-25T10:14:51;98362.22;;;2.21;79.83
20228;BME280;12195;55.790;37.572;2024-01-25T10:17:25;98367.27;;;2.24;79.92
20228;BME280;12195;55.790;37.572;2024-01-25T10:20:00;98363.70;;;2.26;79.33
20228;BME280;12195;55.790;37.572;2024-01-25T10:22:35;98369.64;;;2.28;79.47
20228;BME280;12195;55.790;37.572;2024-01-25T10:25:13;98366.23;;;2.28;79.61
20228;BME280;12195;55.790;37.572;2024-01-25T10:27:47;98365.31;;;2.29;79.86
20228;BME280;12195;55.790;37.572;2024-01-25T10:30:23;98364.41;;;2.30;79.86
20228;BME280;12195;55.790;37.572;2024-01-25T10:32:59;98373.72;;;2.34;80.18
20228;BME280;12195;55.790;37.572;2024-01-25T10:35:33;98370.09;;;2.38;79.91
20228;BME280;12195;55.790;37.572;2024-01-25T10:38:07;98364.91;;;2.38;79.65
20228;BME280;12195;55.790;37.572;2024-01-25T10:40:40;98371.83;;;2.37;79.92
20228;BME280;12195;55.790;37.572;2024-01-25T10:43:16;98361.85;;;2.48;80.28
20228;BME280;12195;55.790;37.572;2024-01-25T10:45:50;98364.79;;;2.41;79.81
20228;BME280;12195;55.790;37.572;2024-01-25T10:48:26;98368.26;;;2.40;79.00
20228;BME280;12195;55.790;37.572;2024-01-25T10:51:02;98371.77;;;2.39;79.37
20228;BME280;12195;55.790;37.572;2024-01-25T10:53:36;98365.77;;;2.38;79.43
20228;BME280;12195;55.790;37.572;2024-01-25T10:56:11;98373.44;;;2.40;79.50
20228;BME280;12195;55.790;37.572;2024-01-25T10:58:46;98376.94;;;2.39;78.69
20228;BME280;12195;55.790;37.572;2024-01-25T11:01:20;98372.05;;;2.33;78.86
20228;BME280;12195;55.790;37.572;2024-01-25T11:03:53;98358.77;;;2.20;79.24
20228;BME280;12195;55.790;37.572;2024-01-25T11:06:31;98376.25;;;2.35;79.21
20228;BME280;12195;55.790;37.572;2024-01-25T11:09:07;98373.59;;;2.37;78.97
20228;BME280;12195;55.790;37.572;2024-01-25T11:11:46;98369.39;;;2.34;79.17
20228;BME280;12195;55.790;37.572;2024-01-25T11:14:20;98378.90;;;2.34;79.21
20228;BME280;12195;55.790;37.572;2024-01-25T11:16:54;98372.05;;;2.33;79.06
20228;BME280;12195;55.790;37.572;2024-01-25T11:19:28;98373.84;;;2.31;79.04
20228;BME280;12195;55.790;37.572;2024-01-25T11:22:03;98372.36;;;2.25;79.06
20228;BME280;12195;55.790;37.572;2024-01-25T11:24:39;98376.77;;;2.23;79.14
20228;BME280;12195;55.790;37.572;2024-01-25T11:27:14;98380.45;;;2.18;79.40
20228;BME280;12195;55.790;37.572;2024-01-25T11:29:51;98377.11;;;2.16;79.50
20228;BME280;12195;55.790;37.572;2024-01-25T11:32:31;98372.75;;;2.16;79.45
20228;BME280;12195;55.790;37.572;2024-01-25T11:35:05;98372.63;;;2.19;79.52
20228;BME280;12195;55.790;37.572;2024-01-25T11:37:41;98382.07;;;2.20;79.47
20228;BME280;12195;55.790;37.572;2024-01-25T11:40:15;98382.86;;;2.22;79.86
20228;BME280;12195;55.790;37.572;2024-01-25T11:42:50;98381.03;;;2.24;79.83
20228;BME280;12195;55.790;37.572;2024-01-25T11:45:26;98386.16;;;2.26;79.51
20228;BME280;12195;55.790;37.572;2024-01-25T11:47:59;98387.89;;;2.25;79.51
20228;BME280;12195;55.790;37.572;2024-01-25T11:50:32;98377.02;;;2.17;79.34
20228;BME280;12195;55.790;37.572;2024-01-25T11:53:06;98380.80;;;2.10;79.63
20228;BME280;12195;55.790;37.572;2024-01-25T11:55:40;98386.94;;;2.08;79.72
20228;BME280;12195;55.790;37.572;2024-01-25T11:58:13;98396.77;;;2.00;79.32
20228;BME280;12195;55.790;37.572;2024-01-25T12:00:48;98384.98;;;1.93;79.38
20228;BME280;12195;55.790;37.572;2024-01-25T12:03:22;98394.86;;;1.83;79.65
20228;BME280;12195;55.790;37.572;2024-01-25T12:05:56;98389.89;;;1.79;79.72
20228;BME280;12195;55.790;37.572;2024-01-25T12:08:32;98392.59;;;1.76;79.83
20228;BME280;12195;55.790;37.572;2024-01-25T12:11:10;98386.78;;;1.71;79.80
20228;BME280;12195;55.790;37.572;2024-01-25T12:13:44;98389.48;;;1.68;79.87
20228;BME280;12195;55.790;37.572;2024-01-25T12:16:17;98387.92;;;1.64;79.92
20228;BME280;12195;55.790;37.572;2024-01-25T12:18:51;98389.80;;;1.60;80.13
20228;BME280;12195;55.790;37.572;2024-01-25T12:21:25;98398.38;;;1.61;80.14
20228;BME280;12195;55.790;37.572;2024-01-25T12:23:58;98397.61;;;1.59;79.87
20228;BME280;12195;55.790;37.572;2024-01-25T12:26:34;98400.26;;;1.57;79.75
20228;BME280;12195;55.790;37.572;2024-01-25T12:29:07;98401.98;;;1.57;80.12
20228;BME280;12195;55.790;37.572;2024-01-25T12:31:43;98395.25;;;1.53;80.32
20228;BME280;12195;55.790;37.572;2024-01-25T12:34:16;98402.25;;;1.51;80.36
20228;BME280;12195;55.790;37.572;2024-01-25T12:36:49;98403.21;;;1.48;80.57
20228;BME280;12195;55.790;37.572;2024-01-25T12:39:25;98399.77;;;1.48;80.74
20228;BME280;12195;55.790;37.572;2024-01-25T12:41:58;98397.19;;;1.48;80.99
20228;BME280;12195;55.790;37.572;2024-01-25T12:44:33;98405.85;;;1.47;81.00
20228;BME280;12195;55.790;37.572;2024-01-25T12:47:08;98400.48;;;1.51;80.74
20228;BME280;12195;55.790;37.572;2024-01-25T12:49:44;98402.30;;;1.49;80.43
20228;BME280;12195;55.790;37.572;2024-01-25T12:52:19;98405.05;;;1.45;81.03
20228;BME280;12195;55.790;37.572;2024-01-25T12:54:54;98402.47;;;1.45;81.30
20228;BME280;12195;55.790;37.572;2024-01-25T12:57:32;98412.70;;;1.48;80.88
20228;BME280;12195;55.790;37.572;2024-01-25T13:00:07;98409.09;;;1.52;80.61
20228;BME280;12195;55.790;37.572;2024-01-25T13:02:43;98414.38;;;1.49;80.75
20228;BME280;12195;55.790;37.572;2024-01-25T13:05:18;98416.20;;;1.47;80.92
20228;BME280;12195;55.790;37.572;2024-01-25T13:07:52;98408.49;;;1.45;81.05
20228;BME280;12195;55.790;37.572;2024-01-25T13:10:26;98413.72;;;1.44;81.07
20228;BME280;12195;55.790;37.572;2024-01-25T13:12:59;98419.00;;;1.41;81.36
20228;BME280;12195;55.790;37.572;2024-01-25T13:15:32;98418.04;;;1.43;81.72
20228;BME280;12195;55.790;37.572;2024-01-25T13:18:07;98414.63;;;1.43;81.81
20228;BME280;12195;55.790;37.572;2024-01-25T13:20:41;98414.52;;;1.46;81.72
20228;BME280;12195;55.790;37.572;2024-01-25T13:23:14;98424.86;;;1.46;81.85
20228;BME280;12195;55.790;37.572;2024-01-25T13:25:47;98422.28;;;1.46;81.80
20228;BME280;12195;55.790;37.572;2024-01-25T13:28:21;98420.45;;;1.48;81.73
20228;BME280;12195;55.790;37.572;2024-01-25T13:30:54;98419.61;;;1.47;81.95
20228;BME280;12195;55.790;37.572;2024-01-25T13:33:28;98423.09;;;1.46;82.10
20228;BME280;12195;55.790;37.572;2024-01-25T13:36:03;98431.66;;;1.48;82.27
20228;BME280;12195;55.790;37.572;2024-01-25T13:38:40;98437.64;;;1.49;82.32